Time;durP1;ratioP1;P1;durP2;ratioP2;P2;SDS_P1;SDS_P2;PMS_P1;PMS_P2;Temp;Humidity;BMP_temperature;BMP_pressure;BME280_temperature;BME280_humidity;BME280_pressure;Samples;Min_cycle;Max_cycle;Signal;HPM_P1;HPM_P2
2021/01/07 00:01:04;;;;;;;;;71.00;48.25;;;;;1.86;100.00;99240.31;5010545;28;8973;-59
2021/01/07 00:03:38;;;;;;;;;96.75;60.75;;;;;1.50;100.00;99240.63;5010922;28;8827;-59
2021/01/07 00:06:13;;;;;;;;;93.50;66.75;;;;;1.69;100.00;99238.25;5012722;28;8851;-60
2021/01/07 00:08:40;;;;;;;;;93.75;62.50;;;;;1.73;100.00;99237.22;5019879;28;8866;-60
2021/01/07 00:11:09;;;;;;;;;82.25;58.50;;;;;1.75;100.00;99239.81;5008381;28;8850;-59
2021/01/07 00:13:37;;;;;;;;;109.50;72.25;;;;;1.61;100.00;99232.34;5019078;28;8929;-63
2021/01/07 00:16:05;;;;;;;;;99.50;70.50;;;;;1.42;100.00;99232.06;5020328;28;8832;-59
2021/01/07 00:18:32;;;;;;;;;99.25;65.50;;;;;1.47;100.00;99232.78;5020384;28;8949;-59
2021/01/07 00:20:59;;;;;;;;;100.50;64.50;;;;;1.76;100.00;99236.25;5025494;28;8834;-60
2021/01/07 00:23:26;;;;;;;;;98.50;63.50;;;;;1.52;100.00;99227.34;5019070;28;8852;-60
2021/01/07 00:25:55;;;;;;;;;92.25;64.75;;;;;1.64;100.00;99236.69;5016046;28;8875;-59
2021/01/07 00:28:24;;;;;;;;;100.25;66.75;;;;;1.78;100.00;99229.13;5009259;28;8857;-60
2021/01/07 00:30:52;;;;;;;;;94.50;61.50;;;;;1.63;100.00;99222.56;5015120;28;8852;-60
2021/01/07 00:33:19;;;;;;;;;89.50;60.50;;;;;1.82;100.00;99219.31;5016137;28;8894;-61
2021/01/07 00:35:46;;;;;;;;;84.00;59.75;;;;;1.86;100.00;99232.38;5025361;28;8844;-60
2021/01/07 00:38:13;;;;;;;;;100.50;69.75;;;;;1.70;100.00;99237.31;5021022;28;8860;-60
2021/01/07 00:40:41;;;;;;;;;93.50;64.00;;;;;1.62;100.00;99243.78;5015890;28;8836;-60
2021/01/07 00:43:08;;;;;;;;;88.25;62.50;;;;;1.59;100.00;99243.91;5028457;28;8863;-59
2021/01/07 00:45:34;;;;;;;;;87.25;60.50;;;;;1.67;100.00;99253.31;5018789;28;8846;-59
2021/01/07 00:48:02;;;;;;;;;93.25;65.00;;;;;1.78;100.00;99255.59;5014720;28;8903;-60
2021/01/07 00:50:28;;;;;;;;;82.50;59.75;;;;;1.77;100.00;99258.31;5005818;28;8868;-61
2021/01/07 00:52:56;;;;;;;;;83.00;60.25;;;;;1.59;100.00;99257.97;5026274;28;9549;-59
2021/01/07 00:55:22;;;;;;;;;84.75;55.25;;;;;1.53;100.00;99251.13;5014974;28;8836;-59
2021/01/07 00:57:49;;;;;;;;;86.75;59.75;;;;;1.58;100.00;99248.31;5021265;28;8859;-60
2021/01/07 01:00:19;;;;;;;;;73.25;57.00;;;;;1.58;100.00;99255.38;5019290;28;8850;-60
2021/01/07 01:02:46;;;;;;;;;78.50;53.75;;;;;1.61;100.00;99257.94;5016141;28;8844;-60
2021/01/07 01:05:14;;;;;;;;;78.50;57.50;;;;;1.52;100.00;99257.28;5003584;28;8853;-60
2021/01/07 01:07:42;;;;;;;;;69.00;50.25;;;;;1.66;100.00;99258.63;5021588;28;8841;-60
2021/01/07 01:10:11;;;;;;;;;70.25;53.50;;;;;1.72;100.00;99263.75;5002548;28;8857;-60
2021/01/07 01:12:38;;;;;;;;;80.75;49.50;;;;;1.77;100.00;99267.13;5024739;28;8987;-59
2021/01/07 01:15:11;;;;;;;;;73.00;49.00;;;;;1.80;100.00;99266.16;5019197;28;8837;-60
2021/01/07 01:17:42;;;;;;;;;76.00;50.75;;;;;1.69;99.72;99270.00;5024510;28;8864;-60
2021/01/07 01:20:12;;;;;;;;;66.00;52.00;;;;;1.65;99.81;99270.16;5005899;28;8873;-61
2021/01/07 01:22:41;;;;;;;;;77.25;48.50;;;;;1.65;100.00;99270.16;5025771;28;8962;-60
2021/01/07 01:25:10;;;;;;;;;69.00;49.75;;;;;1.89;99.74;99266.69;5006915;28;8852;-60
2021/01/07 01:27:41;;;;;;;;;65.00;42.00;;;;;1.82;100.00;99267.84;5001638;28;8857;-59
2021/01/07 01:30:11;;;;;;;;;65.50;43.75;;;;;2.08;99.63;99274.03;5012017;28;8954;-60
2021/01/07 01:32:40;;;;;;;;;68.25;47.00;;;;;1.98;99.38;99274.34;5019317;28;8875;-60
2021/01/07 01:35:09;;;;;;;;;69.25;46.75;;;;;1.95;99.21;99263.88;5022935;28;8864;-60
2021/01/07 01:37:37;;;;;;;;;63.50;44.50;;;;;1.91;99.09;99277.25;5024347;28;8857;-60
2021/01/07 01:40:10;;;;;;;;;72.25;50.00;;;;;2.04;98.48;99277.72;5006900;28;8837;-60
2021/01/07 01:42:37;;;;;;;;;76.00;48.50;;;;;2.12;98.51;99278.31;5001950;28;8876;-59
2021/01/07 01:45:06;;;;;;;;;52.75;46.25;;;;;2.24;98.20;99284.97;5017710;28;8852;-60
2021/01/07 01:47:33;;;;;;;;;59.75;45.25;;;;;2.26;98.01;99280.47;5024398;28;8838;-61
2021/01/07 01:50:00;;;;;;;;;64.00;46.50;;;;;2.18;96.27;99283.38;5017546;28;8886;-60
2021/01/07 01:52:27;;;;;;;;;49.75;37.00;;;;;2.24;95.00;99275.25;5016449;28;8880;-60
2021/01/07 01:54:54;;;;;;;;;42.00;30.50;;;;;2.09;94.79;99273.13;5002890;28;8836;-60
2021/01/07 01:57:21;;;;;;;;;34.75;28.25;;;;;2.34;94.65;99267.84;5004018;28;8860;-59
2021/01/07 01:59:48;;;;;;;;;26.75;21.50;;;;;2.23;94.48;99270.00;5012984;28;8870;-60
2021/01/07 02:02:18;;;;;;;;;24.25;20.00;;;;;2.22;94.06;99266.50;5021244;28;8875;-61
2021/01/07 02:04:46;;;;;;;;;21.75;18.00;;;;;2.30;94.30;99268.88;5005363;28;8837;-60
2021/01/07 02:07:41;;;;;;;;;23.25;19.50;;;;;2.34;94.03;99265.19;5000805;28;8886;-59
2021/01/07 02:10:09;;;;;;;;;27.00;20.75;;;;;2.16;93.93;99261.41;5016152;28;9555;-60
2021/01/07 02:12:36;;;;;;;;;25.50;19.00;;;;;2.31;94.02;99260.84;5013410;28;8864;-59
2021/01/07 02:15:04;;;;;;;;;35.00;22.25;;;;;2.24;94.15;99267.31;5017369;28;8957;-60
2021/01/07 02:17:32;;;;;;;;;28.00;22.00;;;;;2.28;94.74;99266.25;5022455;28;8857;-60
2021/01/07 02:19:59;;;;;;;;;34.00;21.75;;;;;2.35;94.08;99266.94;5023896;28;8909;-59
2021/01/07 02:22:26;;;;;;;;;22.00;19.00;;;;;2.40;93.48;99276.44;5006359;28;8849;-60
2021/01/07 02:24:53;;;;;;;;;22.00;15.00;;;;;2.30;93.98;99279.47;5021250;28;8848;-60
2021/01/07 02:27:20;;;;;;;;;26.25;18.50;;;;;2.44;93.63;99286.94;5018479;28;8872;-60
2021/01/07 02:29:47;;;;;;;;;30.50;25.25;;;;;2.25;93.91;99287.56;5022474;28;9702;-59
2021/01/07 02:32:14;;;;;;;;;26.25;18.50;;;;;2.31;93.80;99290.00;5020319;28;8859;-60
2021/01/07 02:34:41;;;;;;;;;28.75;24.00;;;;;2.18;94.78;99296.63;5014388;28;8868;-60
2021/01/07 02:37:08;;;;;;;;;28.00;22.50;;;;;2.16;94.98;99299.34;5012411;28;8849;-59
2021/01/07 02:39:35;;;;;;;;;22.75;18.25;;;;;2.15;95.07;99292.31;5021198;28;8860;-58
2021/01/07 02:42:02;;;;;;;;;22.75;22.25;;;;;2.12;95.09;99291.56;5022460;28;8842;-59
2021/01/07 02:44:29;;;;;;;;;40.00;29.75;;;;;2.17;94.67;99294.91;4999103;28;8856;-59
2021/01/07 02:46:55;;;;;;;;;39.75;32.50;;;;;2.23;95.04;99294.69;5023325;28;8868;-59
2021/01/07 02:49:22;;;;;;;;;27.25;22.25;;;;;2.11;94.98;99292.47;5022823;28;8876;-60
2021/01/07 02:51:49;;;;;;;;;52.75;33.75;;;;;2.04;96.37;99296.25;4997614;28;8856;-59
2021/01/07 02:54:16;;;;;;;;;63.00;48.00;;;;;1.86;96.74;99290.63;5015155;28;8844;-60
2021/01/07 02:56:43;;;;;;;;;58.00;46.25;;;;;1.92;96.89;99295.75;5020302;28;8837;-59
2021/01/07 02:59:11;;;;;;;;;29.00;21.50;;;;;1.91;97.25;99288.69;5013939;28;8859;-60
2021/01/07 03:01:38;;;;;;;;;29.00;23.50;;;;;1.90;97.29;99292.25;5019516;28;8867;-60
2021/01/07 03:04:05;;;;;;;;;21.75;21.00;;;;;1.96;97.23;99294.69;5023896;28;8845;-59
2021/01/07 03:06:32;;;;;;;;;36.00;24.00;;;;;1.88;97.02;99294.09;5016429;28;9032;-60
2021/01/07 03:08:58;;;;;;;;;27.75;21.75;;;;;1.97;96.94;99293.81;5005048;28;8867;-60
2021/01/07 03:11:25;;;;;;;;;27.50;22.75;;;;;1.90;96.63;99291.41;5023433;28;8829;-59
2021/01/07 03:13:52;;;;;;;;;24.25;14.25;;;;;1.88;96.32;99294.09;5021855;28;8883;-59
2021/01/07 03:16:19;;;;;;;;;30.75;24.75;;;;;1.89;95.46;99295.81;5014322;28;8865;-60
2021/01/07 03:18:46;;;;;;;;;32.50;24.00;;;;;1.69;94.89;99285.88;5019056;28;8860;-59
2021/01/07 03:21:13;;;;;;;;;24.00;18.00;;;;;1.79;93.99;99289.13;5015889;28;8872;-59
2021/01/07 03:23:39;;;;;;;;;30.25;19.50;;;;;1.66;94.75;99288.63;5023283;28;8852;-60
2021/01/07 03:26:06;;;;;;;;;25.50;21.00;;;;;1.75;95.01;99282.16;5027361;28;8958;-60
2021/01/07 03:28:33;;;;;;;;;22.00;18.00;;;;;1.78;94.59;99290.00;5023657;28;8853;-60
2021/01/07 03:31:00;;;;;;;;;22.00;18.50;;;;;1.87;94.79;99295.03;5015364;28;8876;-59
2021/01/07 03:33:27;;;;;;;;;21.00;18.00;;;;;1.85;94.26;99296.84;5024882;28;8844;-54
2021/01/07 03:35:54;;;;;;;;;181.50;149.25;;;;;1.96;93.94;99291.19;5016496;28;8978;-59
2021/01/07 03:38:21;;;;;;;;;69.00;56.50;;;;;1.85;94.60;99294.19;5016027;28;8858;-60
2021/01/07 03:40:47;;;;;;;;;55.75;48.75;;;;;1.62;95.55;99296.72;5013362;28;8844;-59
2021/01/07 03:43:15;;;;;;;;;45.25;40.50;;;;;1.77;95.30;99293.59;5017956;28;8852;-60
2021/01/07 03:45:41;;;;;;;;;28.75;27.25;;;;;1.53;96.09;99298.72;5017068;28;8863;-61
2021/01/07 03:48:08;;;;;;;;;32.75;30.25;;;;;1.53;96.22;99298.72;5011204;28;9586;-59
2021/01/07 03:50:36;;;;;;;;;32.50;21.00;;;;;1.76;95.63;99299.78;4994862;28;9597;-60
2021/01/07 03:53:03;;;;;;;;;19.75;13.75;;;;;1.68;95.86;99296.50;5011136;28;8844;-60
2021/01/07 03:55:30;;;;;;;;;35.75;24.00;;;;;1.57;96.48;99288.06;5011610;28;8863;-60
2021/01/07 03:57:57;;;;;;;;;27.25;18.75;;;;;1.66;96.53;99285.09;5011964;28;8911;-59
2021/01/07 04:00:24;;;;;;;;;34.50;25.00;;;;;1.73;96.13;99278.69;5011210;28;8906;-59
2021/01/07 04:02:51;;;;;;;;;29.00;24.25;;;;;1.92;95.39;99285.16;5011597;28;8929;-60
2021/01/07 04:05:17;;;;;;;;;35.75;27.75;;;;;1.60;95.22;99277.38;5011795;28;8878;-60
2021/01/07 04:07:44;;;;;;;;;39.00;28.00;;;;;1.84;95.54;99287.16;5011786;28;8856;-60
2021/01/07 04:10:11;;;;;;;;;32.75;27.25;;;;;1.75;95.10;99283.03;5012150;28;8879;-60
2021/01/07 04:12:38;;;;;;;;;41.50;30.50;;;;;1.77;94.62;99280.34;5011110;28;8860;-60
2021/01/07 04:15:07;;;;;;;;;33.50;28.00;;;;;1.83;95.08;99280.13;4995070;28;8859;-60
2021/01/07 04:17:34;;;;;;;;;33.75;26.00;;;;;1.65;94.92;99284.22;5011470;28;8898;-60
2021/01/07 04:20:01;;;;;;;;;39.25;29.75;;;;;1.59;95.13;99287.09;5011885;28;8868;-61
2021/01/07 04:22:28;;;;;;;;;26.25;18.50;;;;;1.55;94.99;99306.59;4990785;28;8858;-59
2021/01/07 04:24:55;;;;;;;;;27.50;24.25;;;;;1.69;95.08;99293.81;4992333;28;9626;-60
2021/01/07 04:27:21;;;;;;;;;36.00;25.50;;;;;1.47;94.59;99284.81;5006620;28;8875;-60
2021/01/07 04:29:48;;;;;;;;;34.25;25.50;;;;;1.43;94.55;99289.34;5010867;28;8860;-60
2021/01/07 04:32:15;;;;;;;;;30.00;25.00;;;;;1.53;94.57;99293.44;5011729;28;8903;-59
2021/01/07 04:34:42;;;;;;;;;32.25;21.75;;;;;1.61;94.24;99293.19;5011994;28;8836;-60
2021/01/07 04:37:09;;;;;;;;;40.25;28.50;;;;;1.34;93.83;99292.25;5011038;28;8878;-60
2021/01/07 04:39:35;;;;;;;;;31.00;24.00;;;;;1.25;94.06;99292.53;5011072;28;8856;-60
2021/01/07 04:42:03;;;;;;;;;40.00;27.75;;;;;1.30;94.43;99291.50;5011193;28;8860;-60
2021/01/07 04:44:31;;;;;;;;;43.00;30.25;;;;;1.23;94.48;99297.00;4978072;28;8848;-60
2021/01/07 04:46:59;;;;;;;;;33.50;27.50;;;;;1.45;93.70;99299.84;5010469;28;8868;-60
2021/01/07 04:49:26;;;;;;;;;34.25;30.00;;;;;1.21;94.15;99296.19;5011496;28;8879;-60
2021/01/07 04:51:53;;;;;;;;;40.50;26.00;;;;;1.25;93.94;99298.69;5010673;28;8864;-60
2021/01/07 04:54:21;;;;;;;;;34.75;30.25;;;;;1.35;93.34;99309.88;5012532;28;8845;-59
2021/01/07 04:56:47;;;;;;;;;37.50;30.50;;;;;1.30;93.56;99307.34;5012886;28;8873;-60
2021/01/07 04:59:15;;;;;;;;;39.50;32.00;;;;;1.36;92.92;99305.44;5010994;28;8848;-60
2021/01/07 05:01:42;;;;;;;;;34.25;27.00;;;;;1.26;93.54;99310.13;5011173;28;8861;-60
2021/01/07 05:04:10;;;;;;;;;21.75;14.00;;;;;1.18;93.95;99306.84;4990833;28;8865;-59
2021/01/07 05:06:37;;;;;;;;;35.50;30.25;;;;;1.26;92.58;99310.13;4996380;28;8845;-59
2021/01/07 05:09:06;;;;;;;;;37.75;29.50;;;;;1.21;92.51;99309.41;5011438;28;8867;-59
2021/01/07 05:11:34;;;;;;;;;50.50;36.25;;;;;1.28;92.96;99309.19;5011177;28;8874;-60
2021/01/07 05:14:09;;;;;;;;;37.25;27.25;;;;;1.04;93.50;99316.06;5014338;28;8863;-59
2021/01/07 05:16:37;;;;;;;;;52.25;39.00;;;;;1.05;93.73;99317.81;5014365;28;8875;-59
2021/01/07 05:19:07;;;;;;;;;40.50;33.50;;;;;0.96;94.52;99318.06;4997790;28;8871;-60
2021/01/07 05:21:35;;;;;;;;;33.00;25.00;;;;;1.02;94.12;99317.88;5014542;28;9021;-60
2021/01/07 05:24:03;;;;;;;;;24.50;24.50;;;;;1.27;93.34;99319.81;5015018;28;8871;-59
2021/01/07 05:26:30;;;;;;;;;46.25;31.00;;;;;1.16;93.39;99324.53;4997064;28;8856;-60
2021/01/07 05:28:59;;;;;;;;;40.50;30.75;;;;;0.97;93.38;99327.72;5014423;28;8976;-61
2021/01/07 05:31:27;;;;;;;;;32.50;29.00;;;;;1.07;92.86;99329.19;5014894;28;8890;-60
2021/01/07 05:33:55;;;;;;;;;41.00;30.75;;;;;1.28;92.86;99329.47;5014706;28;8848;-59
2021/01/07 05:36:28;;;;;;;;;36.25;27.75;;;;;1.26;92.01;99326.91;5014898;28;8844;-60
2021/01/07 05:39:04;;;;;;;;;39.75;31.50;;;;;1.01;92.38;99337.31;5014691;28;8852;-61
2021/01/07 05:41:36;;;;;;;;;50.75;38.00;;;;;1.01;92.22;99336.44;5014243;28;8854;-59
2021/01/07 05:44:06;;;;;;;;;41.50;31.25;;;;;0.87;93.03;99339.47;5003462;28;8844;-59
2021/01/07 05:46:35;;;;;;;;;39.00;32.00;;;;;1.16;92.40;99343.03;5012857;28;8914;-58
2021/01/07 05:49:03;;;;;;;;;42.50;32.50;;;;;1.04;91.54;99346.91;5013668;28;8974;-60
2021/01/07 05:51:31;;;;;;;;;32.75;26.00;;;;;1.11;92.21;99345.84;5013577;28;8852;-59
2021/01/07 05:54:00;;;;;;;;;32.25;29.75;;;;;0.90;92.26;99349.97;5014511;28;8858;-60
2021/01/07 05:56:27;;;;;;;;;45.25;35.75;;;;;0.90;92.54;99354.38;5013290;28;9000;-59
2021/01/07 05:58:55;;;;;;;;;49.25;32.00;;;;;0.79;92.75;99357.28;5014122;28;8852;-60
2021/01/07 06:01:24;;;;;;;;;36.75;30.00;;;;;0.74;92.90;99359.19;4997082;28;8894;-59
2021/01/07 06:03:53;;;;;;;;;38.00;30.75;;;;;0.73;92.50;99360.09;5014338;28;8855;-59
2021/01/07 06:06:23;;;;;;;;;36.25;31.00;;;;;0.54;92.93;99363.25;5014074;28;8946;-60
2021/01/07 06:08:55;;;;;;;;;48.00;32.50;;;;;0.74;92.73;99359.19;5013978;28;8848;-60
2021/01/07 06:11:25;;;;;;;;;44.00;30.00;;;;;0.66;92.98;99362.06;4997242;28;8867;-58
2021/01/07 06:13:54;;;;;;;;;25.25;25.25;;;;;0.74;93.08;99359.19;5013890;28;8882;-60
2021/01/07 06:16:23;;;;;;;;;43.50;28.75;;;;;0.63;93.01;99360.38;4996546;28;8895;-60
2021/01/07 06:18:53;;;;;;;;;52.00;32.75;;;;;0.60;92.96;99368.34;5012840;28;8843;-61
2021/01/07 06:21:27;;;;;;;;;47.25;26.50;;;;;0.47;92.64;99371.34;5012908;28;8876;-59
2021/01/07 06:23:59;;;;;;;;;59.75;41.75;;;;;0.42;93.37;99371.47;5012450;28;8947;-59
2021/01/07 06:26:29;;;;;;;;;50.00;43.50;;;;;0.34;93.63;99379.59;5013476;28;8836;-59
2021/01/07 06:29:00;;;;;;;;;37.50;24.00;;;;;0.21;94.34;99375.50;5013976;28;8843;-59
2021/01/07 06:31:32;;;;;;;;;35.50;28.75;;;;;0.43;93.33;99386.44;4996503;28;8882;-60
2021/01/07 06:33:59;;;;;;;;;54.50;35.00;;;;;0.36;93.11;99387.47;5013448;28;8852;-61
2021/01/07 06:36:48;;;;;;;;;36.75;31.50;;;;;0.30;92.66;99390.28;5024181;28;8881;-59
2021/01/07 06:39:21;;;;;;;;;71.50;46.25;;;;;0.46;92.48;99402.19;5015627;28;8866;-59
2021/01/07 06:41:58;;;;;;;;;53.00;37.50;;;;;0.49;92.40;99407.38;5013341;28;8838;-59
2021/01/07 06:44:27;;;;;;;;;53.50;37.50;;;;;0.55;92.30;99415.16;5014806;28;8875;-60
2021/01/07 06:46:54;;;;;;;;;47.00;37.00;;;;;0.63;91.82;99423.78;5005433;28;8942;-59
2021/01/07 06:49:27;;;;;;;;;53.50;40.50;;;;;0.62;91.53;99429.94;5013376;28;8844;-58
2021/01/07 06:52:06;;;;;;;;;44.50;36.25;;;;;0.78;90.32;99440.13;5022545;28;8848;-59
2021/01/07 06:54:45;;;;;;;;;42.50;35.75;;;;;0.63;90.70;99442.25;5013683;28;8847;-60
2021/01/07 06:57:14;;;;;;;;;48.50;42.00;;;;;0.72;91.10;99446.44;4996353;28;9636;-59
2021/01/07 06:59:56;;;;;;;;;41.50;32.00;;;;;0.86;90.20;99446.06;5012343;28;8855;-59
2021/01/07 07:02:25;;;;;;;;;39.75;33.00;;;;;0.94;89.42;99449.38;5012678;28;8853;-59
2021/01/07 07:05:09;;;;;;;;;42.25;31.25;;;;;1.05;89.90;99450.00;5013093;28;9441;-58
2021/01/07 07:07:39;;;;;;;;;47.00;33.50;;;;;0.89;89.61;99453.91;5010329;28;8854;-59
2021/01/07 07:10:18;;;;;;;;;50.50;33.75;;;;;0.84;90.71;99455.81;5012588;28;8906;-60
2021/01/07 07:12:50;;;;;;;;;46.75;41.75;;;;;0.72;91.15;99462.28;5013018;28;8856;-59
2021/01/07 07:15:22;;;;;;;;;83.50;60.25;;;;;0.88;89.98;99465.41;5012019;28;8870;-60
2021/01/07 07:17:57;;;;;;;;;48.75;37.00;;;;;0.82;89.74;99476.16;5012947;28;8860;-61
2021/01/07 07:20:26;;;;;;;;;59.00;45.00;;;;;0.85;89.99;99476.06;5013024;28;8871;-60
2021/01/07 07:22:54;;;;;;;;;49.25;36.50;;;;;1.00;90.22;99482.72;5011961;28;8866;-60
2021/01/07 07:25:26;;;;;;;;;46.50;36.25;;;;;0.93;90.48;99481.16;5012708;28;8856;-59
2021/01/07 07:28:00;;;;;;;;;52.75;40.50;;;;;1.02;90.03;99492.34;5012326;28;8868;-59
2021/01/07 07:30:29;;;;;;;;;59.75;38.50;;;;;1.04;90.37;99495.81;5012577;28;8882;-59
2021/01/07 07:32:58;;;;;;;;;45.50;36.00;;;;;1.08;89.67;99494.84;5012587;28;8847;-58
2021/01/07 07:35:42;;;;;;;;;52.25;36.75;;;;;1.16;88.88;99491.09;4978704;28;8864;-59
2021/01/07 07:38:11;;;;;;;;;36.00;30.25;;;;;1.23;89.93;99492.69;5011737;28;9573;-59
2021/01/07 07:40:40;;;;;;;;;46.75;36.25;;;;;1.16;89.08;99499.03;5011796;28;8871;-60
2021/01/07 07:43:09;;;;;;;;;65.50;47.00;;;;;1.22;89.05;99509.47;5012412;28;8843;-60
2021/01/07 07:45:38;;;;;;;;;46.25;41.50;;;;;1.19;90.25;99510.44;5012439;28;8869;-59
2021/01/07 07:48:08;;;;;;;;;61.25;43.50;;;;;1.28;90.04;99504.00;5012015;28;8889;-59
2021/01/07 07:50:35;;;;;;;;;57.50;43.50;;;;;1.51;89.24;99506.03;5011977;28;8981;-58
2021/01/07 07:53:06;;;;;;;;;61.75;48.75;;;;;1.39;88.79;99504.59;5012467;28;8887;-59
2021/01/07 07:55:42;;;;;;;;;58.50;49.50;;;;;1.43;89.12;99513.31;5012563;28;8850;-58
2021/01/07 07:58:15;;;;;;;;;46.50;39.75;;;;;1.54;88.64;99500.66;5012359;28;9681;-58
2021/01/07 08:00:57;;;;;;;;;34.00;26.25;;;;;1.70;88.19;99509.03;5012219;28;8901;-59
2021/01/07 08:03:32;;;;;;;;;34.00;28.25;;;;;1.61;88.34;99511.97;5011437;28;8864;-59
2021/01/07 08:06:00;;;;;;;;;24.25;21.00;;;;;1.74;88.13;99514.22;5011979;28;8846;-59
2021/01/07 08:08:30;;;;;;;;;41.25;29.00;;;;;1.77;87.76;99513.25;5012174;28;8882;-59
2021/01/07 08:10:59;;;;;;;;;33.50;29.25;;;;;1.85;86.93;99524.47;5012959;28;8871;-59
2021/01/07 08:13:29;;;;;;;;;45.50;34.50;;;;;2.02;87.12;99523.13;5032056;28;8833;-59
2021/01/07 08:16:01;;;;;;;;;33.50;22.50;;;;;1.79;87.27;99519.38;4990090;28;8839;-60
2021/01/07 08:18:30;;;;;;;;;37.25;29.25;;;;;2.15;87.14;99524.50;5007969;28;8848;-60
2021/01/07 08:21:10;;;;;;;;;44.00;31.25;;;;;1.98;86.50;99523.22;5012032;28;8865;-60
2021/01/07 08:23:38;;;;;;;;;45.25;37.50;;;;;1.89;86.49;99523.47;5011762;28;8868;-59
2021/01/07 08:26:43;;;;;;;;;35.25;31.25;;;;;2.11;85.90;99520.22;5001609;28;8893;-60
2021/01/07 08:29:11;;;;;;;;;37.75;30.50;;;;;2.10;85.59;99526.41;5010413;28;8852;-60
2021/01/07 08:31:48;;;;;;;;;40.00;29.25;;;;;2.36;85.15;99529.13;5011046;28;8876;-60
2021/01/07 08:34:19;;;;;;;;;41.75;28.25;;;;;2.12;85.51;99529.88;5014435;28;8848;-59
2021/01/07 08:36:46;;;;;;;;;37.00;29.75;;;;;2.31;85.85;99536.34;5011227;28;8859;-59
2021/01/07 08:39:15;;;;;;;;;30.75;25.00;;;;;2.31;85.96;99531.06;5008110;28;8863;-59
2021/01/07 08:41:45;;;;;;;;;33.50;25.75;;;;;2.35;84.75;99543.31;5010911;28;8846;-59
2021/01/07 08:44:12;;;;;;;;;30.75;25.50;;;;;2.37;84.94;99538.84;5011491;28;8872;-60
2021/01/07 08:46:45;;;;;;;;;35.50;25.25;;;;;2.25;85.20;99544.50;5010120;28;8856;-60
2021/01/07 08:49:16;;;;;;;;;35.00;30.00;;;;;2.41;84.23;99547.53;5016169;28;8852;-59
2021/01/07 08:51:44;;;;;;;;;32.00;22.00;;;;;2.44;83.38;99549.22;5014965;28;8848;-60
2021/01/07 08:54:23;;;;;;;;;36.25;31.25;;;;;2.40;84.39;99549.34;5015065;28;8855;-59
2021/01/07 08:56:52;;;;;;;;;23.00;20.00;;;;;2.37;83.91;99546.78;4978970;28;8878;-60
2021/01/07 08:59:40;;;;;;;;;32.50;23.75;;;;;2.46;83.10;99547.41;5012828;28;8848;-60
2021/01/07 09:02:06;;;;;;;;;35.25;28.00;;;;;2.59;83.25;99548.75;5015353;28;8874;-59
2021/01/07 09:04:41;;;;;;;;;36.75;26.00;;;;;2.54;82.36;99558.63;5014441;28;8844;-59
2021/01/07 09:07:20;;;;;;;;;35.25;26.75;;;;;2.74;83.42;99558.88;5014469;28;8847;-60
2021/01/07 09:09:55;;;;;;;;;31.75;27.50;;;;;2.79;83.56;99561.38;5013962;28;8962;-59
2021/01/07 09:12:34;;;;;;;;;27.50;25.00;;;;;2.94;83.81;99562.69;5015180;28;8911;-60
2021/01/07 09:15:22;;;;;;;;;30.50;23.50;;;;;2.89;82.45;99567.25;5014317;28;8863;-60
2021/01/07 09:17:55;;;;;;;;;30.25;17.00;;;;;3.14;81.64;99565.53;5009372;28;9303;-59
2021/01/07 09:20:33;;;;;;;;;37.00;29.25;;;;;3.14;81.02;99565.53;5014834;28;8886;-59
2021/01/07 09:23:09;;;;;;;;;22.00;19.67;;;;;3.20;80.38;99559.16;5014436;28;8886;-59
2021/01/07 09:25:37;;;;;;;;;26.00;22.25;;;;;3.03;79.96;99568.56;5013705;28;8881;-59
2021/01/07 09:28:43;;;;;;;;;18.33;14.67;;;;;3.22;80.11;99566.16;5012957;28;8844;-60
2021/01/07 09:31:10;;;;;;;;;25.00;22.00;;;;;3.68;80.01;99569.00;5013632;28;8993;-59
2021/01/07 09:33:36;;;;;;;;;33.00;20.33;;;;;3.77;79.76;99565.19;5013853;28;8863;-59
2021/01/07 09:36:04;;;;;;;;;40.67;24.00;;;;;3.84;78.94;99569.31;5008833;28;8848;-60
2021/01/07 09:38:31;;;;;;;;;31.00;26.67;;;;;3.98;79.55;99564.41;5027771;28;8865;-60
2021/01/07 09:40:58;;;;;;;;;23.00;17.00;;;;;3.61;79.27;99563.06;5033734;28;8869;-60
2021/01/07 09:43:25;;;;;;;;;21.33;19.00;;;;;3.59;79.71;99566.69;5013885;28;8855;-59
2021/01/07 09:45:52;;;;;;;;;20.67;17.00;;;;;3.44;78.86;99553.00;5017918;28;8852;-60
2021/01/07 09:48:18;;;;;;;;;22.67;17.00;;;;;3.30;79.41;99561.44;5014575;28;8840;-61
2021/01/07 09:50:45;;;;;;;;;30.33;23.00;;;;;3.65;78.98;99555.84;5012673;28;8864;-60
2021/01/07 09:53:12;;;;;;;;;30.00;20.00;;;;;3.61;77.72;99560.41;5013969;28;8864;-60
2021/01/07 09:55:39;;;;;;;;;25.00;20.33;;;;;3.62;77.64;99561.25;5014653;28;8874;-61
2021/01/07 09:58:06;;;;;;;;;38.67;27.67;;;;;3.40;78.07;99561.16;5009407;28;8872;-61
2021/01/07 10:00:33;;;;;;;;;28.00;19.00;;;;;3.52;79.73;99556.25;5013111;28;8974;-60
2021/01/07 10:04:02;;;;;;;;;30.00;24.00;;;;;3.11;78.89;99564.75;4996491;28;8982;-62
2021/01/07 10:06:29;;;;;;;;;35.75;27.75;;;;;3.63;78.18;99553.22;5023468;28;8861;-59
2021/01/07 10:08:56;;;;;;;;;25.33;21.33;;;;;3.40;79.18;99553.19;5020368;28;8859;-61
2021/01/07 10:11:23;;;;;;;;;26.67;20.67;;;;;3.40;79.52;99550.53;5013952;28;8872;-61
2021/01/07 10:13:50;;;;;;;;;29.33;19.33;;;;;3.60;77.97;99561.31;5015368;28;9585;-62
2021/01/07 10:16:17;;;;;;;;;26.33;23.33;;;;;3.52;76.53;99556.25;5018481;28;9579;-61
2021/01/07 10:18:44;;;;;;;;;28.33;22.33;;;;;3.99;77.06;99558.16;5003689;28;8890;-61
2021/01/07 10:21:18;;;;;;;;;26.33;23.00;;;;;3.85;75.64;99558.66;5013954;28;8836;-62
2021/01/07 10:23:47;;;;;;;;;19.67;17.67;;;;;3.82;77.03;99553.47;4994083;28;8908;-62
2021/01/07 10:26:17;;;;;;;;;17.00;15.33;;;;;3.85;76.24;99552.50;4995776;28;8852;-62
2021/01/07 10:28:49;;;;;;;;;22.00;17.33;;;;;3.83;76.71;99552.53;5014510;28;8876;-61
2021/01/07 10:31:18;;;;;;;;;33.00;29.67;;;;;4.17;77.29;99560.13;5021581;28;8872;-62
2021/01/07 10:33:47;;;;;;;;;24.67;19.33;;;;;4.31;76.75;99559.59;4996813;28;8871;-62
2021/01/07 10:36:15;;;;;;;;;14.33;14.33;;;;;4.49;75.77;99554.50;5013204;28;8860;-62
2021/01/07 10:42:37;;;;;;;;;18.33;17.00;;;;;3.71;74.28;99553.84;5020026;28;8952;-62
2021/01/07 10:45:05;;;;;;;;;29.33;21.67;;;;;3.61;75.73;99556.88;5002251;28;8878;-62
2021/01/07 10:47:37;;;;;;;;;27.33;18.00;;;;;3.56;75.56;99558.84;5018742;28;8858;-62
2021/01/07 10:50:05;;;;;;;;;25.00;20.33;;;;;3.44;75.97;99562.78;5016305;28;8849;-61
2021/01/07 10:53:05;;;;;;;;;19.00;16.33;;;;;3.35;76.71;99563.09;5006123;28;8858;-62
2021/01/07 10:55:58;;;;;;;;;28.00;17.00;;;;;3.35;76.64;99568.41;5012499;28;8862;-62
2021/01/07 10:58:38;;;;;;;;;30.67;23.33;;;;;3.20;77.55;99573.28;5013087;28;8878;-62
2021/01/07 11:01:39;;;;;;;;;27.67;21.33;;;;;3.08;78.99;99571.03;4995552;28;10899;-62
2021/01/07 11:04:43;;;;;;;;;32.50;22.75;;;;;2.86;79.23;99571.72;5005844;28;8954;-62
2021/01/07 11:07:26;;;;;;;;;25.50;21.00;;;;;2.81;79.07;99570.16;5017282;28;8872;-62
2021/01/07 11:10:02;;;;;;;;;20.00;17.67;;;;;2.96;77.93;99577.63;5030566;28;8889;-62
2021/01/07 11:12:40;;;;;;;;;26.33;17.67;;;;;3.07;77.33;99575.47;5012582;28;8895;-62
2021/01/07 11:15:16;;;;;;;;;21.33;15.33;;;;;3.32;76.85;99576.44;5013318;28;8851;-62
2021/01/07 11:17:54;;;;;;;;;33.00;24.25;;;;;3.43;76.55;99571.66;4996041;28;8888;-62
2021/01/07 11:20:27;;;;;;;;;26.67;18.33;;;;;3.73;76.41;99565.25;5012096;28;8840;-62
2021/01/07 11:22:55;;;;;;;;;18.67;15.67;;;;;3.94;74.94;99560.09;5012261;28;8884;-63
2021/01/07 11:25:23;;;;;;;;;19.00;18.67;;;;;4.09;75.03;99567.50;5011963;28;8848;-62
2021/01/07 11:27:52;;;;;;;;;18.00;14.00;;;;;3.92;73.45;99562.84;5012237;28;9573;-62
2021/01/07 11:30:20;;;;;;;;;15.67;10.33;;;;;4.18;72.71;99567.16;5013069;28;8999;-62
2021/01/07 11:32:48;;;;;;;;;15.67;12.33;;;;;4.13;71.58;99562.94;5012348;28;8868;-61
2021/01/07 11:35:14;;;;;;;;;21.00;14.33;;;;;4.42;72.48;99561.84;4995586;28;8844;-62
2021/01/07 11:38:01;;;;;;;;;21.00;16.33;;;;;4.36;70.08;99557.63;5011870;28;8848;-62
2021/01/07 11:40:53;;;;;;;;;20.33;13.33;;;;;4.64;72.24;99563.69;5012686;28;8854;-62
2021/01/07 11:43:43;;;;;;;;;14.00;14.00;;;;;4.69;70.98;99569.69;5013081;28;8950;-62
2021/01/07 11:46:18;;;;;;;;;18.00;16.33;;;;;4.58;72.28;99570.09;5031173;28;8833;-62
2021/01/07 11:49:08;;;;;;;;;28.00;20.33;;;;;5.01;71.32;99574.56;5023744;28;8874;-62
2021/01/07 11:51:36;;;;;;;;;26.33;19.33;;;;;4.89;70.43;99575.06;4993829;28;8891;-61